RYR7RP LEZL-LIRF
Flight info
| Callsign | RYR7RP |
|---|---|
| Flight time | N/A |
| Altitude | 38000 |
| Route | BUDIT DCT ETURA DCT TOSTO DCT OLPOS DCT BEGOX DCT LASPO DCT ORVUS DCT GODOX DCT EDULI DCT PTC DCT MHN DCT MORSS DCT BAVON DCT ORKUM DCT ELSAG DCT ALG DCT MINKA DCT POZZO DCT TINTO DCT VALMA |
| Aircraft | B738/M-SDE3FGILRWY/SB1 |
Departure
| Time | 2026-04-26 09:44 |
|---|---|
| Airport | Seville Airport (LEZL) |
Arrival
| Time | N/A |
|---|---|
| Airport | Rome–Fiumicino Leonardo da Vinci International Airport (LIRF) |
| Time | Latitude | Longitude | Altitude | Speed | Heading |
|---|---|---|---|---|---|
| 2026-04-26 09:16 | 37.42424 | -5.89650 | 120 ft | 0 kts | 98° |
| 2026-04-26 09:37 | 37.42424 | -5.89648 | 93 ft | 1 kts | 98° |
| 2026-04-26 09:37 | 37.42418 | -5.89635 | 93 ft | 0 kts | 141° |
| 2026-04-26 09:37 | 37.42416 | -5.89636 | 93 ft | 0 kts | 161° |
| 2026-04-26 09:38 | 37.42413 | -5.89639 | 93 ft | 1 kts | 213° |
| 2026-04-26 09:38 | 37.42405 | -5.89655 | 92 ft | 5 kts | 233° |
| 2026-04-26 09:38 | 37.42366 | -5.89648 | 93 ft | 9 kts | 139° |
| 2026-04-26 09:38 | 37.42317 | -5.89586 | 93 ft | 10 kts | 134° |
| 2026-04-26 09:39 | 37.42266 | -5.89522 | 93 ft | 10 kts | 136° |
| 2026-04-26 09:39 | 37.42216 | -5.89461 | 95 ft | 10 kts | 134° |
| 2026-04-26 09:39 | 37.42160 | -5.89432 | 97 ft | 10 kts | 204° |
| 2026-04-26 09:39 | 37.42113 | -5.89491 | 97 ft | 9 kts | 226° |
| 2026-04-26 09:40 | 37.42064 | -5.89553 | 97 ft | 11 kts | 226° |
| 2026-04-26 09:40 | 37.42006 | -5.89632 | 96 ft | 13 kts | 237° |
| 2026-04-26 09:40 | 37.41982 | -5.89741 | 96 ft | 13 kts | 268° |
| 2026-04-26 09:40 | 37.41981 | -5.89852 | 95 ft | 13 kts | 269° |
| 2026-04-26 09:41 | 37.41980 | -5.89959 | 95 ft | 12 kts | 269° |
| 2026-04-26 09:41 | 37.41980 | -5.90065 | 95 ft | 12 kts | 269° |
| 2026-04-26 09:41 | 37.41979 | -5.90168 | 94 ft | 12 kts | 269° |
| 2026-04-26 09:41 | 37.41978 | -5.90269 | 94 ft | 12 kts | 269° |
| 2026-04-26 09:42 | 37.41977 | -5.90376 | 93 ft | 13 kts | 269° |
| 2026-04-26 09:42 | 37.41978 | -5.90486 | 93 ft | 13 kts | 270° |
| 2026-04-26 09:42 | 37.41978 | -5.90608 | 92 ft | 15 kts | 270° |
| 2026-04-26 09:42 | 37.41978 | -5.90753 | 91 ft | 18 kts | 269° |
| 2026-04-26 09:43 | 37.41970 | -5.90921 | 90 ft | 20 kts | 251° |
| 2026-04-26 09:43 | 37.41900 | -5.91087 | 89 ft | 22 kts | 241° |
| 2026-04-26 09:43 | 37.41803 | -5.91175 | 89 ft | 18 kts | 148° |
| 2026-04-26 09:43 | 37.41783 | -5.91030 | 94 ft | 19 kts | 87° |
| 2026-04-26 09:44 | 37.41794 | -5.90547 | 95 ft | 93 kts | 88° |
| 2026-04-26 09:44 | 37.41810 | -5.89433 | 113 ft | 156 kts | 86° |
| 2026-04-26 09:44 | 37.41861 | -5.87917 | 453 ft | 192 kts | 86° |
| 2026-04-26 09:44 | 37.41900 | -5.86134 | 925 ft | 202 kts | 89° |
| 2026-04-26 09:45 | 37.41889 | -5.84472 | 2092 ft | 184 kts | 89° |
| 2026-04-26 09:45 | 37.41877 | -5.82813 | 2929 ft | 194 kts | 92° |
| 2026-04-26 09:45 | 37.41940 | -5.81022 | 3288 ft | 220 kts | 81° |
| 2026-04-26 09:45 | 37.42243 | -5.79084 | 3881 ft | 229 kts | 79° |
| 2026-04-26 09:46 | 37.42572 | -5.77097 | 4617 ft | 235 kts | 79° |
| 2026-04-26 09:46 | 37.43036 | -5.75130 | 5407 ft | 237 kts | 70° |
| 2026-04-26 09:46 | 37.43468 | -5.73834 | 5772 ft | 251 kts | 68° |
| 2026-04-26 09:46 | 37.44209 | -5.71769 | 6469 ft | 263 kts | 66° |
| 2026-04-26 09:47 | 37.44981 | -5.69660 | 7340 ft | 266 kts | 68° |
| 2026-04-26 09:47 | 37.46006 | -5.66838 | 8616 ft | 268 kts | 68° |
| 2026-04-26 09:47 | 37.46525 | -5.65389 | 9258 ft | 270 kts | 68° |
| 2026-04-26 09:47 | 37.47287 | -5.63249 | 10164 ft | 272 kts | 68° |
| 2026-04-26 09:48 | 37.48079 | -5.61006 | 10599 ft | 292 kts | 68° |
| 2026-04-26 09:48 | 37.48939 | -5.58559 | 10896 ft | 315 kts | 68° |
| 2026-04-26 09:48 | 37.49836 | -5.56001 | 11550 ft | 322 kts | 67° |
| 2026-04-26 09:48 | 37.50749 | -5.53394 | 12325 ft | 327 kts | 67° |
| 2026-04-26 09:49 | 37.51671 | -5.50758 | 13137 ft | 330 kts | 67° |
| 2026-04-26 09:49 | 37.52605 | -5.48084 | 13899 ft | 335 kts | 66° |
| 2026-04-26 09:49 | 37.53537 | -5.45408 | 14535 ft | 341 kts | 66° |
| 2026-04-26 09:49 | 37.54498 | -5.42645 | 15211 ft | 346 kts | 66° |
| 2026-04-26 09:50 | 37.55472 | -5.39844 | 15869 ft | 351 kts | 66° |
| 2026-04-26 09:50 | 37.56461 | -5.36994 | 16544 ft | 356 kts | 66° |
| 2026-04-26 09:50 | 37.57460 | -5.34113 | 17208 ft | 360 kts | 66° |
| 2026-04-26 09:50 | 37.58468 | -5.31206 | 17857 ft | 365 kts | 66° |
| 2026-04-26 09:51 | 37.59493 | -5.28244 | 18500 ft | 370 kts | 66° |
| 2026-04-26 09:51 | 37.60470 | -5.25260 | 19060 ft | 374 kts | 72° |
| 2026-04-26 09:51 | 37.60901 | -5.22012 | 19632 ft | 378 kts | 84° |
| 2026-04-26 09:51 | 37.61120 | -5.18689 | 20219 ft | 382 kts | 85° |
| 2026-04-26 09:52 | 37.61327 | -5.15313 | 20733 ft | 387 kts | 85° |
| 2026-04-26 09:52 | 37.61754 | -5.08524 | 21894 ft | 393 kts | 85° |
| 2026-04-26 09:52 | 37.61982 | -5.05061 | 22424 ft | 397 kts | 84° |
| 2026-04-26 09:53 | 37.62214 | -5.01600 | 22945 ft | 401 kts | 84° |
| 2026-04-26 09:53 | 37.62455 | -4.98060 | 23487 ft | 405 kts | 84° |
| 2026-04-26 09:53 | 37.62698 | -4.94499 | 23962 ft | 408 kts | 84° |
| 2026-04-26 09:53 | 37.62940 | -4.90953 | 24418 ft | 411 kts | 84° |
| 2026-04-26 09:54 | 37.63186 | -4.87345 | 24893 ft | 413 kts | 84° |
| 2026-04-26 09:54 | 37.63433 | -4.83718 | 25352 ft | 415 kts | 84° |
| 2026-04-26 09:54 | 37.63679 | -4.80078 | 25805 ft | 418 kts | 84° |
| 2026-04-26 09:54 | 37.63925 | -4.76411 | 26251 ft | 420 kts | 84° |
| 2026-04-26 09:55 | 37.64172 | -4.72712 | 26692 ft | 422 kts | 84° |
| 2026-04-26 09:55 | 37.64416 | -4.69049 | 27112 ft | 425 kts | 84° |
| 2026-04-26 09:55 | 37.64663 | -4.65319 | 27527 ft | 427 kts | 84° |
| 2026-04-26 09:55 | 37.64911 | -4.61559 | 27947 ft | 429 kts | 84° |
| 2026-04-26 09:56 | 37.65158 | -4.57792 | 28356 ft | 432 kts | 84° |
| 2026-04-26 09:56 | 37.65406 | -4.53991 | 28752 ft | 434 kts | 85° |
| 2026-04-26 09:56 | 37.65650 | -4.50238 | 29135 ft | 436 kts | 85° |
| 2026-04-26 09:56 | 37.65897 | -4.46407 | 29518 ft | 438 kts | 85° |
| 2026-04-26 09:57 | 37.66146 | -4.42548 | 29892 ft | 440 kts | 85° |
| 2026-04-26 09:57 | 37.66393 | -4.38680 | 30236 ft | 442 kts | 85° |
| 2026-04-26 09:57 | 37.66640 | -4.34795 | 30546 ft | 444 kts | 85° |
| 2026-04-26 09:57 | 37.66884 | -4.30945 | 30849 ft | 446 kts | 85° |
| 2026-04-26 09:58 | 37.67130 | -4.27038 | 31135 ft | 447 kts | 85° |
| 2026-04-26 09:58 | 37.67376 | -4.23110 | 31455 ft | 448 kts | 85° |
| 2026-04-26 09:58 | 37.67620 | -4.19196 | 31863 ft | 446 kts | 85° |
| 2026-04-26 09:58 | 37.67862 | -4.15290 | 32308 ft | 444 kts | 85° |
| 2026-04-26 09:59 | 37.68101 | -4.11410 | 32710 ft | 443 kts | 85° |
| 2026-04-26 09:59 | 37.68338 | -4.07534 | 33079 ft | 442 kts | 85° |
| 2026-04-26 09:59 | 37.68572 | -4.03708 | 33468 ft | 440 kts | 85° |
| 2026-04-26 09:59 | 37.68805 | -3.99862 | 33870 ft | 438 kts | 85° |
| 2026-04-26 10:00 | 37.69036 | -3.96026 | 34242 ft | 437 kts | 85° |
| 2026-04-26 10:00 | 37.69266 | -3.92197 | 34519 ft | 437 kts | 85° |
| 2026-04-26 10:00 | 37.69495 | -3.88362 | 34760 ft | 437 kts | 85° |
| 2026-04-26 10:00 | 37.69722 | -3.84531 | 35019 ft | 438 kts | 85° |
| 2026-04-26 10:01 | 37.69947 | -3.80730 | 35299 ft | 437 kts | 85° |
| 2026-04-26 10:01 | 37.70172 | -3.76894 | 35538 ft | 438 kts | 85° |
| 2026-04-26 10:01 | 37.70397 | -3.73040 | 35710 ft | 440 kts | 85° |
| 2026-04-26 10:01 | 37.70623 | -3.69158 | 35895 ft | 442 kts | 85° |
| 2026-04-26 10:02 | 37.70844 | -3.65330 | 36137 ft | 442 kts | 84° |
| 2026-04-26 10:02 | 37.71067 | -3.61445 | 36358 ft | 443 kts | 85° |
| 2026-04-26 10:02 | 37.71289 | -3.57549 | 36545 ft | 444 kts | 85° |
| 2026-04-26 10:02 | 37.71510 | -3.53651 | 36743 ft | 446 kts | 84° |
| 2026-04-26 10:03 | 37.71730 | -3.49737 | 36957 ft | 446 kts | 85° |
| 2026-04-26 10:03 | 37.71949 | -3.45815 | 37139 ft | 447 kts | 84° |
| 2026-04-26 10:03 | 37.72165 | -3.41929 | 37343 ft | 448 kts | 85° |
| 2026-04-26 10:03 | 37.72383 | -3.37985 | 37532 ft | 448 kts | 85° |
| 2026-04-26 10:04 | 37.72600 | -3.34050 | 37710 ft | 450 kts | 84° |
| 2026-04-26 10:04 | 37.72815 | -3.30106 | 37941 ft | 450 kts | 85° |
| 2026-04-26 10:04 | 37.73027 | -3.26206 | 38087 ft | 449 kts | 85° |
| 2026-04-26 10:04 | 37.73240 | -3.22253 | 38116 ft | 450 kts | 85° |
| 2026-04-26 10:05 | 37.73662 | -3.14373 | 38143 ft | 453 kts | 85° |
| 2026-04-26 10:05 | 37.74084 | -3.06383 | 38141 ft | 456 kts | 85° |
| 2026-04-26 10:06 | 37.74503 | -2.98336 | 38136 ft | 458 kts | 85° |
| 2026-04-26 10:06 | 37.74918 | -2.90292 | 38139 ft | 459 kts | 85° |
| 2026-04-26 10:07 | 37.75429 | -2.82295 | 38113 ft | 457 kts | 75° |
| 2026-04-26 10:07 | 37.76497 | -2.78554 | 38156 ft | 451 kts | 59° |
| 2026-04-26 10:07 | 37.78309 | -2.75343 | 38141 ft | 447 kts | 45° |
| 2026-04-26 10:08 | 37.82601 | -2.69747 | 38143 ft | 445 kts | 43° |
| 2026-04-26 10:08 | 37.86935 | -2.64166 | 38138 ft | 444 kts | 44° |
| 2026-04-26 10:09 | 37.91214 | -2.58513 | 38134 ft | 443 kts | 45° |
| 2026-04-26 10:09 | 37.95463 | -2.52851 | 38136 ft | 442 kts | 45° |
| 2026-04-26 10:10 | 37.99697 | -2.47206 | 38147 ft | 441 kts | 45° |
| 2026-04-26 10:10 | 38.03913 | -2.41574 | 38147 ft | 440 kts | 45° |
| 2026-04-26 10:11 | 38.08127 | -2.35932 | 38157 ft | 439 kts | 45° |
| 2026-04-26 10:11 | 38.12333 | -2.30289 | 38149 ft | 439 kts | 45° |
| 2026-04-26 10:12 | 38.16514 | -2.24672 | 38158 ft | 439 kts | 45° |
| 2026-04-26 10:12 | 38.20712 | -2.19014 | 38153 ft | 439 kts | 47° |
| 2026-04-26 10:13 | 38.24576 | -2.12988 | 38175 ft | 439 kts | 51° |
| 2026-04-26 10:13 | 38.28280 | -2.06842 | 38163 ft | 439 kts | 51° |
| 2026-04-26 10:14 | 38.32030 | -2.00705 | 38162 ft | 439 kts | 51° |
| 2026-04-26 10:14 | 38.35801 | -1.94578 | 38160 ft | 438 kts | 51° |
| 2026-04-26 10:15 | 38.39551 | -1.88487 | 38167 ft | 438 kts | 51° |
| 2026-04-26 10:15 | 38.43317 | -1.82370 | 38164 ft | 437 kts | 51° |
| 2026-04-26 10:16 | 38.47050 | -1.76294 | 38165 ft | 437 kts | 51° |
| 2026-04-26 10:16 | 38.50798 | -1.70179 | 38163 ft | 436 kts | 51° |
| 2026-04-26 10:17 | 38.54537 | -1.64066 | 38165 ft | 435 kts | 52° |
| 2026-04-26 10:17 | 38.58247 | -1.57988 | 38156 ft | 435 kts | 52° |
| 2026-04-26 10:18 | 38.61962 | -1.51892 | 38158 ft | 434 kts | 52° |
| 2026-04-26 10:18 | 38.65653 | -1.45822 | 38163 ft | 434 kts | 52° |
| 2026-04-26 10:19 | 38.69359 | -1.39717 | 38150 ft | 434 kts | 52° |
| 2026-04-26 10:19 | 38.73060 | -1.33610 | 38155 ft | 433 kts | 52° |
| 2026-04-26 10:20 | 38.76135 | -1.28527 | 38156 ft | 433 kts | 52° |
| 2026-04-26 10:20 | 38.80441 | -1.21394 | 38151 ft | 433 kts | 52° |
| 2026-04-26 10:21 | 38.84125 | -1.15278 | 38151 ft | 433 kts | 52° |
| 2026-04-26 10:21 | 38.87794 | -1.09176 | 38154 ft | 433 kts | 53° |
| 2026-04-26 10:22 | 38.91476 | -1.03039 | 38146 ft | 433 kts | 53° |
| 2026-04-26 10:22 | 38.95158 | -0.96890 | 38149 ft | 433 kts | 53° |
| 2026-04-26 10:23 | 38.98813 | -0.90774 | 38153 ft | 433 kts | 53° |
| 2026-04-26 10:23 | 39.02498 | -0.84599 | 38153 ft | 434 kts | 53° |
| 2026-04-26 10:24 | 39.06160 | -0.78472 | 38156 ft | 434 kts | 51° |
| 2026-04-26 10:24 | 39.10555 | -0.73129 | 38166 ft | 436 kts | 40° |
| 2026-04-26 10:25 | 39.15273 | -0.68251 | 38172 ft | 437 kts | 40° |
| 2026-04-26 10:25 | 39.19989 | -0.63286 | 38159 ft | 437 kts | 40° |
| 2026-04-26 10:26 | 39.24682 | -0.58273 | 38156 ft | 438 kts | 41° |
| 2026-04-26 10:26 | 39.26765 | -0.55411 | 38144 ft | 435 kts | 58° |
| 2026-04-26 10:26 | 39.28141 | -0.51962 | 38167 ft | 432 kts | 72° |
| 2026-04-26 10:27 | 39.28780 | -0.48192 | 38163 ft | 430 kts | 86° |
| 2026-04-26 10:27 | 39.28985 | -0.44336 | 38162 ft | 430 kts | 87° |
| 2026-04-26 10:27 | 39.29310 | -0.36658 | 38162 ft | 431 kts | 88° |
| 2026-04-26 10:28 | 39.29666 | -0.28907 | 38158 ft | 432 kts | 87° |
| 2026-04-26 10:28 | 39.30054 | -0.21205 | 38162 ft | 432 kts | 87° |
| 2026-04-26 10:29 | 39.30454 | -0.13431 | 38167 ft | 433 kts | 87° |
| 2026-04-26 10:29 | 39.30847 | -0.05705 | 38166 ft | 433 kts | 87° |
| 2026-04-26 10:30 | 39.31235 | 0.02054 | 38174 ft | 432 kts | 87° |
| 2026-04-26 10:30 | 39.31618 | 0.09815 | 38169 ft | 432 kts | 87° |
| 2026-04-26 10:31 | 39.31992 | 0.17510 | 38171 ft | 431 kts | 88° |
| 2026-04-26 10:31 | 39.32362 | 0.25238 | 38170 ft | 431 kts | 88° |
| 2026-04-26 10:32 | 39.32728 | 0.32967 | 38179 ft | 430 kts | 88° |
| 2026-04-26 10:32 | 39.33090 | 0.40697 | 38178 ft | 430 kts | 88° |
| 2026-04-26 10:33 | 39.33385 | 0.47129 | 38178 ft | 430 kts | 88° |
| 2026-04-26 10:33 | 39.33732 | 0.54796 | 38174 ft | 429 kts | 88° |
| 2026-04-26 10:34 | 39.34077 | 0.62508 | 38178 ft | 429 kts | 88° |
| 2026-04-26 10:34 | 39.34414 | 0.70173 | 38178 ft | 429 kts | 88° |
| 2026-04-26 10:35 | 39.34749 | 0.77886 | 38179 ft | 429 kts | 88° |
| 2026-04-26 10:35 | 39.35078 | 0.85594 | 38178 ft | 430 kts | 88° |
| 2026-04-26 10:36 | 39.35404 | 0.93327 | 38176 ft | 430 kts | 88° |
| 2026-04-26 10:36 | 39.35722 | 1.01017 | 38174 ft | 431 kts | 88° |
| 2026-04-26 10:37 | 39.36038 | 1.08775 | 38170 ft | 431 kts | 88° |
| 2026-04-26 10:37 | 39.36349 | 1.16522 | 38173 ft | 431 kts | 88° |
| 2026-04-26 10:38 | 39.36652 | 1.24219 | 38168 ft | 432 kts | 88° |
| 2026-04-26 10:38 | 39.36954 | 1.32010 | 38162 ft | 432 kts | 88° |
| 2026-04-26 10:39 | 39.37251 | 1.39785 | 38161 ft | 433 kts | 89° |
| 2026-04-26 10:39 | 39.37537 | 1.47510 | 38164 ft | 433 kts | 89° |
| 2026-04-26 10:40 | 39.37818 | 1.55300 | 38160 ft | 433 kts | 89° |
| 2026-04-26 10:40 | 39.38094 | 1.63066 | 38162 ft | 433 kts | 89° |
| 2026-04-26 10:41 | 39.38364 | 1.70819 | 38171 ft | 433 kts | 89° |
| 2026-04-26 10:41 | 39.38631 | 1.78614 | 38167 ft | 433 kts | 89° |
| 2026-04-26 10:42 | 39.38893 | 1.86409 | 38172 ft | 433 kts | 89° |
| 2026-04-26 10:42 | 39.39148 | 1.94156 | 38180 ft | 433 kts | 89° |
| 2026-04-26 10:43 | 39.39400 | 2.01974 | 38180 ft | 434 kts | 89° |
| 2026-04-26 10:43 | 39.39646 | 2.09782 | 38174 ft | 434 kts | 89° |
| 2026-04-26 10:44 | 39.39886 | 2.17546 | 38174 ft | 434 kts | 89° |
| 2026-04-26 10:44 | 39.40122 | 2.25354 | 38173 ft | 434 kts | 89° |
| 2026-04-26 10:45 | 39.40353 | 2.33153 | 38163 ft | 434 kts | 89° |
| 2026-04-26 10:45 | 39.40580 | 2.40972 | 38169 ft | 435 kts | 89° |
| 2026-04-26 10:46 | 39.40801 | 2.48802 | 38162 ft | 435 kts | 89° |
| 2026-04-26 10:46 | 39.41014 | 2.56560 | 38158 ft | 435 kts | 89° |
| 2026-04-26 10:47 | 39.41226 | 2.64399 | 38159 ft | 435 kts | 89° |
| 2026-04-26 10:47 | 39.41432 | 2.72226 | 38156 ft | 435 kts | 89° |
| 2026-04-26 10:48 | 39.41632 | 2.80016 | 38159 ft | 436 kts | 89° |
| 2026-04-26 10:48 | 39.41828 | 2.87854 | 38161 ft | 436 kts | 89° |
| 2026-04-26 10:49 | 39.42018 | 2.95681 | 38163 ft | 436 kts | 89° |
| 2026-04-26 10:49 | 39.42203 | 3.03512 | 38161 ft | 436 kts | 89° |
| 2026-04-26 10:50 | 39.42353 | 3.10022 | 38173 ft | 435 kts | 89° |
| 2026-04-26 10:50 | 39.42559 | 3.19171 | 38183 ft | 435 kts | 89° |
| 2026-04-26 10:51 | 39.44788 | 3.30485 | 38167 ft | 439 kts | 62° |
| 2026-04-26 10:52 | 39.47914 | 3.37270 | 38178 ft | 439 kts | 59° |
| 2026-04-26 10:52 | 39.51108 | 3.44018 | 38183 ft | 440 kts | 59° |
| 2026-04-26 10:53 | 39.54267 | 3.50809 | 38180 ft | 440 kts | 60° |
| 2026-04-26 10:53 | 39.57402 | 3.57631 | 38186 ft | 441 kts | 60° |
| 2026-04-26 10:54 | 39.62091 | 3.67891 | 38184 ft | 442 kts | 60° |
| 2026-04-26 10:54 | 39.65200 | 3.74708 | 38177 ft | 442 kts | 60° |
| 2026-04-26 10:55 | 39.68328 | 3.81583 | 38184 ft | 442 kts | 60° |
| 2026-04-26 10:55 | 39.71454 | 3.88468 | 38179 ft | 443 kts | 60° |
| 2026-04-26 10:56 | 39.74577 | 3.95360 | 38164 ft | 442 kts | 60° |
| 2026-04-26 10:56 | 39.77694 | 4.02255 | 38156 ft | 442 kts | 60° |
| 2026-04-26 10:57 | 39.80803 | 4.09149 | 38167 ft | 442 kts | 60° |
| 2026-04-26 10:57 | 39.83903 | 4.16035 | 38166 ft | 441 kts | 60° |
| 2026-04-26 10:58 | 39.86757 | 4.23094 | 38144 ft | 440 kts | 71° |
| 2026-04-26 10:58 | 39.88422 | 4.30816 | 38167 ft | 446 kts | 76° |
| 2026-04-26 10:59 | 39.89970 | 4.38685 | 38175 ft | 454 kts | 76° |
| 2026-04-26 10:59 | 39.91594 | 4.46690 | 38171 ft | 459 kts | 76° |
| 2026-04-26 11:00 | 39.93252 | 4.54748 | 38164 ft | 460 kts | 75° |
| 2026-04-26 11:00 | 39.94910 | 4.62825 | 38165 ft | 461 kts | 75° |
| 2026-04-26 11:01 | 39.96589 | 4.70843 | 38175 ft | 460 kts | 74° |
| 2026-04-26 11:01 | 39.98425 | 4.78829 | 38172 ft | 459 kts | 73° |
| 2026-04-26 11:02 | 40.00274 | 4.86786 | 38182 ft | 457 kts | 73° |
| 2026-04-26 11:02 | 40.02091 | 4.94720 | 38173 ft | 455 kts | 74° |
| 2026-04-26 11:03 | 40.03876 | 5.02602 | 38178 ft | 454 kts | 74° |
| 2026-04-26 11:03 | 40.05659 | 5.10515 | 38180 ft | 453 kts | 74° |
| 2026-04-26 11:04 | 40.07419 | 5.18352 | 38174 ft | 452 kts | 74° |
| 2026-04-26 11:04 | 40.09185 | 5.26241 | 38178 ft | 451 kts | 74° |
| 2026-04-26 11:05 | 40.10943 | 5.34126 | 38184 ft | 452 kts | 74° |
| 2026-04-26 11:05 | 40.12691 | 5.41992 | 38179 ft | 453 kts | 74° |
| 2026-04-26 11:06 | 40.14151 | 5.48579 | 38182 ft | 453 kts | 74° |
| 2026-04-26 11:06 | 40.16198 | 5.57852 | 38178 ft | 453 kts | 74° |
| 2026-04-26 11:07 | 40.17934 | 5.65748 | 38178 ft | 453 kts | 74° |
| 2026-04-26 11:07 | 40.19673 | 5.73689 | 38176 ft | 453 kts | 74° |
| 2026-04-26 11:08 | 40.21404 | 5.81617 | 38178 ft | 453 kts | 74° |
| 2026-04-26 11:08 | 40.23119 | 5.89503 | 38185 ft | 452 kts | 74° |
| 2026-04-26 11:09 | 40.24842 | 5.97452 | 38178 ft | 452 kts | 74° |
| 2026-04-26 11:09 | 40.26548 | 6.05350 | 38184 ft | 452 kts | 74° |
| 2026-04-26 11:10 | 40.28254 | 6.13273 | 38180 ft | 452 kts | 74° |
| 2026-04-26 11:10 | 40.29957 | 6.21199 | 38180 ft | 452 kts | 74° |
| 2026-04-26 11:11 | 40.31653 | 6.29125 | 38181 ft | 452 kts | 74° |
| 2026-04-26 11:11 | 40.33342 | 6.37047 | 38181 ft | 452 kts | 74° |
| 2026-04-26 11:12 | 40.35029 | 6.44991 | 38180 ft | 452 kts | 74° |
| 2026-04-26 11:12 | 40.36707 | 6.52921 | 38181 ft | 452 kts | 74° |
| 2026-04-26 11:13 | 40.38382 | 6.60869 | 38189 ft | 452 kts | 74° |
| 2026-04-26 11:13 | 40.40043 | 6.68777 | 38179 ft | 453 kts | 74° |
| 2026-04-26 11:14 | 40.41711 | 6.76749 | 38180 ft | 453 kts | 74° |
| 2026-04-26 11:14 | 40.43105 | 6.83433 | 38186 ft | 454 kts | 74° |
| 2026-04-26 11:15 | 40.45034 | 6.92720 | 38186 ft | 454 kts | 74° |
| 2026-04-26 11:15 | 40.46691 | 7.00729 | 38184 ft | 455 kts | 74° |
| 2026-04-26 11:16 | 40.48343 | 7.08745 | 38183 ft | 455 kts | 74° |
| 2026-04-26 11:16 | 40.49990 | 7.16772 | 38180 ft | 455 kts | 74° |
| 2026-04-26 11:17 | 40.51631 | 7.24794 | 38183 ft | 455 kts | 75° |
| 2026-04-26 11:17 | 40.52992 | 7.31475 | 38182 ft | 455 kts | 75° |
| 2026-04-26 11:18 | 40.54623 | 7.39508 | 38184 ft | 455 kts | 75° |
| 2026-04-26 11:18 | 40.56244 | 7.47550 | 38180 ft | 455 kts | 76° |
| 2026-04-26 11:19 | 40.57188 | 7.55769 | 38184 ft | 455 kts | 83° |
| 2026-04-26 11:19 | 40.57815 | 7.64068 | 38172 ft | 458 kts | 84° |
| 2026-04-26 11:20 | 40.58486 | 7.72475 | 38195 ft | 466 kts | 83° |
| 2026-04-26 11:20 | 40.59204 | 7.80989 | 38194 ft | 470 kts | 83° |
| 2026-04-26 11:21 | 40.59929 | 7.89552 | 38182 ft | 472 kts | 83° |
| 2026-04-26 11:21 | 40.60646 | 7.98127 | 38176 ft | 472 kts | 83° |
| 2026-04-26 11:22 | 40.61355 | 8.06707 | 38159 ft | 471 kts | 83° |
| 2026-04-26 11:22 | 40.62058 | 8.15270 | 38162 ft | 470 kts | 84° |
| 2026-04-26 11:23 | 40.62854 | 8.23729 | 38133 ft | 460 kts | 77° |
| 2026-04-26 11:23 | 40.64915 | 8.31535 | 38165 ft | 447 kts | 66° |
| 2026-04-26 11:24 | 40.67366 | 8.39076 | 38162 ft | 448 kts | 66° |
| 2026-04-26 11:24 | 40.69776 | 8.46606 | 38162 ft | 449 kts | 66° |
| 2026-04-26 11:25 | 40.72173 | 8.54245 | 38161 ft | 450 kts | 66° |
| 2026-04-26 11:25 | 40.74546 | 8.61863 | 38162 ft | 452 kts | 67° |
| 2026-04-26 11:26 | 40.76941 | 8.69574 | 38172 ft | 454 kts | 67° |
| 2026-04-26 11:26 | 40.79342 | 8.77318 | 38153 ft | 456 kts | 67° |
| 2026-04-26 11:27 | 40.81743 | 8.85085 | 38158 ft | 457 kts | 67° |
| 2026-04-26 11:27 | 40.84143 | 8.92812 | 38148 ft | 457 kts | 67° |
| 2026-04-26 11:28 | 40.86571 | 9.00610 | 38156 ft | 458 kts | 67° |
| 2026-04-26 11:28 | 40.88973 | 9.08352 | 38152 ft | 458 kts | 67° |
| 2026-04-26 11:29 | 40.91385 | 9.16157 | 38152 ft | 457 kts | 67° |
| 2026-04-26 11:29 | 40.93785 | 9.23944 | 38153 ft | 457 kts | 67° |
| 2026-04-26 11:30 | 40.95777 | 9.30433 | 38158 ft | 457 kts | 67° |
| 2026-04-26 11:30 | 40.98540 | 9.39512 | 38154 ft | 456 kts | 67° |
| 2026-04-26 11:31 | 41.00896 | 9.47280 | 38163 ft | 456 kts | 67° |
| 2026-04-26 11:31 | 41.03255 | 9.55078 | 38161 ft | 455 kts | 68° |
| 2026-04-26 11:32 | 41.03448 | 9.55717 | 38166 ft | 455 kts | 68° |